Terminal Aerodrome Forecast
Issued by NWS Sioux Falls, SD

Home | Current Version | Previous Version | Text Only | Print | Product List | Glossary On
Versions: 1 2 3 4 5 6 7 8 9 10 11 12 13 14 15 16 17 18 19 20 21
000
FTUS43 KFSD 232320
TAFSUX
TAF
KSUX 232320Z 2400/2424 12008KT P6SM OVC015
     FM241200 10013KT P6SM OVC015
     FM241400 10015G23KT P6SM -SN OVC015
     FM241500 10015G23KT 3SM -SN OVC010
     FM242000 07012KT 1/2SM SN OVC003=

USA.gov is the U.S. government's official web portal to all federal, state and local government web resources and services.